Time;durP1;ratioP1;P1;durP2;ratioP2;P2;SDS_P1;SDS_P2;PMS_P1;PMS_P2;Temp;Humidity;BMP_temperature;BMP_pressure;BME280_temperature;BME280_humidity;BME280_pressure;Samples;Min_cycle;Max_cycle;Signal;HPM_P1;HPM_P2
2022/10/28 00:00:50;;;;;;;18.15;8.00;;;14.70;99.90;;;;;;5076870;28;20063;-72
2022/10/28 00:03:17;;;;;;;18.42;8.73;;;14.70;99.90;;;;;;5075313;28;20480;-73
2022/10/28 00:05:43;;;;;;;;;;;14.70;99.90;;;;;;5059169;28;20048;-75
2022/10/28 00:08:09;;;;;;;19.58;7.80;;;14.70;99.90;;;;;;5074751;28;19927;-70
2022/10/28 00:10:35;;;;;;;21.10;8.50;;;14.80;99.90;;;;;;5075253;28;20056;-77
2022/10/28 00:13:01;;;;;;;20.15;9.38;;;14.80;99.90;;;;;;5075023;28;20052;-71
2022/10/28 00:15:27;;;;;;;21.40;8.77;;;14.80;99.90;;;;;;5076303;28;20049;-73
2022/10/28 00:17:53;;;;;;;19.17;9.27;;;14.90;99.90;;;;;;5074867;28;20142;-72
2022/10/28 00:20:18;;;;;;;15.30;8.40;;;14.90;99.90;;;;;;5058449;28;20107;-72
2022/10/28 00:22:44;;;;;;;17.15;9.05;;;14.90;99.90;;;;;;5076011;28;20055;-70
2022/10/28 00:25:10;;;;;;;21.52;9.60;;;14.90;99.90;;;;;;5059085;28;20041;-71
2022/10/28 00:27:36;;;;;;;20.92;8.85;;;14.90;99.90;;;;;;5074786;28;20045;-71
2022/10/28 00:30:02;;;;;;;17.33;8.82;;;14.90;99.90;;;;;;5075464;28;20052;-71
2022/10/28 00:32:29;;;;;;;21.97;9.37;;;14.90;99.90;;;;;;5074740;28;20060;-72
2022/10/28 00:34:54;;;;;;;18.50;9.48;;;14.90;99.90;;;;;;5074297;28;20052;-71
2022/10/28 00:37:20;;;;;;;23.58;9.43;;;14.80;99.90;;;;;;5075641;28;20051;-70
2022/10/28 00:39:46;;;;;;;26.58;9.52;;;14.90;99.90;;;;;;5074502;28;20040;-71
2022/10/28 00:42:16;;;;;;;22.30;10.32;;;14.90;99.90;;;;;;5074924;28;20198;-71
2022/10/28 00:44:53;;;;;;;20.65;9.32;;;14.90;99.90;;;;;;5074653;28;20056;-72
2022/10/28 00:47:31;;;;;;;23.10;9.93;;;14.90;99.90;;;;;;5075344;28;20051;-71
2022/10/28 00:50:18;;;;;;;19.58;9.02;;;14.90;99.90;;;;;;5075803;28;20370;-71
2022/10/28 00:52:49;;;;;;;19.65;9.50;;;14.90;99.90;;;;;;5076207;28;20098;-72
2022/10/28 00:55:17;;;;;;;20.90;9.82;;;14.90;99.90;;;;;;5076169;28;20052;-72
2022/10/28 00:57:44;;;;;;;23.40;10.32;;;14.90;99.90;;;;;;5057610;28;20048;-73
2022/10/28 01:00:10;;;;;;;;;;;14.80;99.90;;;;;;5057941;28;20116;-72
2022/10/28 01:02:43;;;;;;;25.08;9.73;;;14.80;99.90;;;;;;5073888;28;19927;-72
2022/10/28 01:05:12;;;;;;;20.45;9.57;;;14.80;99.90;;;;;;5074684;28;20064;-72
2022/10/28 01:07:37;;;;;;;26.67;10.00;;;14.80;99.90;;;;;;5075016;28;20047;-72
2022/10/28 01:10:04;;;;;;;23.05;10.13;;;14.80;99.90;;;;;;5073060;28;20052;-73
2022/10/28 01:12:54;;;;;;;27.17;11.00;;;14.80;99.90;;;;;;5074772;28;20044;-72
2022/10/28 01:15:23;;;;;;;24.02;10.32;;;14.70;99.90;;;;;;5073834;28;20056;-70
2022/10/28 01:18:38;;;;;;;28.67;10.52;;;14.70;99.90;;;;;;5073725;28;20056;-70
2022/10/28 01:21:11;;;;;;;22.83;10.90;;;14.70;99.90;;;;;;5069461;28;20424;-70
2022/10/28 01:23:59;;;;;;;25.02;10.90;;;14.60;99.90;;;;;;5073593;28;20040;-69
2022/10/28 01:26:49;;;;;;;25.92;11.30;;;14.60;99.90;;;;;;5074470;28;20360;-70
2022/10/28 01:29:43;;;;;;;24.42;11.38;;;14.50;99.90;;;;;;5074582;28;20045;-71
2022/10/28 01:32:36;;;;;;;22.73;10.52;;;14.50;99.90;;;;;;5072550;28;20083;-72
2022/10/28 01:35:14;;;;;;;25.67;10.80;;;14.50;99.90;;;;;;5073461;28;20051;-71
2022/10/28 01:37:46;;;;;;;33.22;10.65;;;14.50;99.90;;;;;;5075138;28;20051;-70
2022/10/28 01:40:32;;;;;;;24.92;11.80;;;14.50;99.90;;;;;;5075335;28;20189;-71
2022/10/28 01:43:23;;;;;;;30.48;12.05;;;14.50;99.90;;;;;;5074230;28;20049;-71
2022/10/28 01:45:55;;;;;;;28.48;12.02;;;14.50;99.90;;;;;;5073241;28;20115;-70
2022/10/28 01:48:45;;;;;;;24.58;11.05;;;14.50;99.90;;;;;;5074773;28;20472;-72
2022/10/28 01:51:24;;;;;;;25.50;10.93;;;14.40;99.90;;;;;;5056869;28;20051;-70
2022/10/28 01:53:53;;;;;;;25.60;11.25;;;14.40;99.90;;;;;;5073223;28;20051;-71
2022/10/28 01:56:28;;;;;;;27.98;11.43;;;14.40;99.90;;;;;;5074981;28;20056;-71
2022/10/28 01:58:57;;;;;;;25.17;11.32;;;14.30;99.90;;;;;;5074822;28;20051;-71
2022/10/28 02:01:24;;;;;;;28.02;11.93;;;14.30;99.90;;;;;;5074343;28;20044;-72
2022/10/28 02:03:50;;;;;;;;;;;14.30;99.90;;;;;;5074564;28;20044;-71
2022/10/28 02:06:19;;;;;;;32.13;11.57;;;14.30;99.90;;;;;;5074216;28;19932;-71
2022/10/28 02:08:58;;;;;;;24.98;11.35;;;14.30;99.90;;;;;;5072646;28;20436;-71
2022/10/28 02:11:37;;;;;;;27.92;11.00;;;14.20;99.90;;;;;;5073651;28;20056;-71
2022/10/28 02:14:05;;;;;;;29.50;11.57;;;14.20;99.90;;;;;;5056419;28;20182;-70
2022/10/28 02:17:12;;;;;;;23.23;10.73;;;14.20;99.90;;;;;;5073718;28;20047;-71
2022/10/28 02:19:50;;;;;;;26.20;11.27;;;14.20;99.90;;;;;;5073942;28;20084;-70
2022/10/28 02:22:37;;;;;;;25.83;11.20;;;14.20;99.90;;;;;;5073250;28;20044;-71
2022/10/28 02:25:13;;;;;;;27.77;11.52;;;14.10;99.90;;;;;;5073747;28;20041;-70
2022/10/28 02:28:22;;;;;;;23.27;11.20;;;14.10;99.90;;;;;;5073852;28;20040;-70
2022/10/28 02:31:01;;;;;;;27.58;11.63;;;14.10;99.90;;;;;;4994966;28;20120;-71
2022/10/28 02:33:33;;;;;;;27.83;11.43;;;14.00;99.90;;;;;;5011571;28;20085;-71
2022/10/28 02:36:27;;;;;;;29.98;11.50;;;14.00;99.90;;;;;;5042367;28;20135;-72
2022/10/28 02:38:55;;;;;;;26.05;10.65;;;14.00;99.90;;;;;;5069502;28;20052;-72
2022/10/28 02:41:48;;;;;;;27.38;11.93;;;14.00;99.90;;;;;;5074036;28;20112;-71
2022/10/28 02:44:24;;;;;;;25.00;10.38;;;14.00;99.90;;;;;;5071225;28;20060;-71
2022/10/28 02:46:51;;;;;;;25.02;10.98;;;13.90;99.90;;;;;;5072374;28;20067;-70
2022/10/28 02:49:17;;;;;;;28.10;10.73;;;14.00;99.90;;;;;;5072376;28;20442;-69
2022/10/28 02:51:52;;;;;;;27.83;11.25;;;13.90;99.90;;;;;;5072780;28;20045;-71
2022/10/28 02:54:23;;;;;;;23.80;11.02;;;13.90;99.90;;;;;;5073040;28;20040;-71
2022/10/28 02:56:56;;;;;;;23.20;10.93;;;13.90;99.90;;;;;;5073131;28;20055;-72
2022/10/28 02:59:24;;;;;;;26.83;10.75;;;13.90;99.90;;;;;;5072963;28;20113;-70
2022/10/28 03:01:50;;;;;;;23.88;10.88;;;13.90;99.90;;;;;;5071966;28;20048;-70
2022/10/28 03:04:16;;;;;;;26.80;10.93;;;13.90;99.90;;;;;;5071418;28;20132;-70
2022/10/28 03:06:41;;;;;;;21.05;11.55;;;13.90;99.90;;;;;;5072799;28;20056;-70
2022/10/28 03:09:07;;;;;;;29.23;11.18;;;13.90;99.90;;;;;;5073152;28;20094;-71
2022/10/28 03:11:33;;;;;;;28.50;11.60;;;13.90;99.90;;;;;;5072831;28;20409;-70
2022/10/28 03:13:58;;;;;;;26.17;10.48;;;13.90;99.90;;;;;;5072588;28;20083;-71
2022/10/28 03:16:25;;;;;;;25.08;11.55;;;13.90;99.90;;;;;;5072126;28;20044;-70
2022/10/28 03:18:51;;;;;;;29.90;11.23;;;13.90;99.90;;;;;;5072230;28;20044;-70
2022/10/28 03:21:17;;;;;;;22.33;10.80;;;13.90;99.90;;;;;;5072720;28;20110;-71
2022/10/28 03:23:43;;;;;;;27.35;11.00;;;13.90;99.90;;;;;;5071631;28;20068;-71
2022/10/28 03:26:08;;;;;;;23.70;11.48;;;13.90;99.90;;;;;;5072371;28;20043;-71
2022/10/28 03:28:34;;;;;;;26.27;11.13;;;13.90;99.90;;;;;;5072430;28;20433;-70
2022/10/28 03:31:00;;;;;;;30.33;11.98;;;13.90;99.90;;;;;;5071971;28;20102;-70
2022/10/28 03:33:25;;;;;;;27.73;10.68;;;13.90;99.90;;;;;;5072051;28;20048;-72
2022/10/28 03:35:51;;;;;;;23.67;10.77;;;13.90;99.90;;;;;;5077718;28;20050;-70
2022/10/28 03:38:17;;;;;;;25.20;11.10;;;13.80;99.90;;;;;;5078831;28;20128;-70
2022/10/28 03:40:42;;;;;;;32.70;11.68;;;13.80;99.90;;;;;;5077505;28;20066;-70
2022/10/28 03:43:08;;;;;;;21.70;10.93;;;13.80;99.90;;;;;;5061345;28;20052;-73
2022/10/28 03:45:34;;;;;;;27.52;10.80;;;13.80;99.90;;;;;;5077527;28;20461;-70
2022/10/28 03:48:00;;;;;;;23.77;10.57;;;13.90;99.90;;;;;;5077407;28;20082;-70
2022/10/28 03:50:26;;;;;;;27.80;11.23;;;13.90;99.90;;;;;;5077304;28;20074;-71
2022/10/28 03:52:51;;;;;;;24.63;10.70;;;13.90;99.90;;;;;;5078721;28;20044;-70
2022/10/28 03:55:17;;;;;;;27.50;12.10;;;13.90;99.90;;;;;;5078718;28;20464;-70
2022/10/28 03:57:43;;;;;;;22.15;11.70;;;13.90;99.90;;;;;;5078670;28;20051;-71
2022/10/28 04:00:09;;;;;;;26.08;10.73;;;13.90;99.90;;;;;;5076972;28;20621;-74
2022/10/28 04:02:34;;;;;;;29.10;10.88;;;13.90;99.90;;;;;;5078746;28;20045;-70
2022/10/28 04:05:00;;;;;;;22.00;11.20;;;13.90;99.90;;;;;;5061034;28;20070;-70
2022/10/28 04:07:26;;;;;;;30.08;11.98;;;13.90;99.90;;;;;;5077225;28;20044;-71
2022/10/28 04:09:51;;;;;;;25.10;11.38;;;13.90;99.90;;;;;;5077324;28;20056;-70
2022/10/28 04:12:18;;;;;;;25.23;11.13;;;13.90;99.90;;;;;;5077202;28;20044;-71
2022/10/28 04:14:43;;;;;;;33.15;10.95;;;13.90;99.90;;;;;;5078125;28;20516;-70
2022/10/28 04:17:09;;;;;;;28.23;11.25;;;13.90;99.90;;;;;;5078270;28;20055;-71
2022/10/28 04:19:35;;;;;;;27.55;11.13;;;13.90;99.90;;;;;;5078352;28;20112;-70
2022/10/28 04:22:01;;;;;;;26.98;11.02;;;13.90;99.90;;;;;;5079088;28;20134;-71
2022/10/28 04:24:26;;;;;;;26.23;11.45;;;13.90;99.90;;;;;;5077342;28;20106;-72
2022/10/28 04:26:52;;;;;;;24.60;10.88;;;13.80;99.90;;;;;;5077293;28;20098;-71
2022/10/28 04:29:18;;;;;;;27.67;10.85;;;13.90;99.90;;;;;;5077166;28;20135;-72
2022/10/28 04:31:44;;;;;;;27.42;10.80;;;13.90;99.90;;;;;;5044007;28;20126;-71
2022/10/28 04:34:10;;;;;;;28.48;11.02;;;13.90;99.90;;;;;;5061052;28;20041;-70
2022/10/28 04:36:36;;;;;;;26.23;10.57;;;13.90;99.90;;;;;;5061065;28;20565;-71
2022/10/28 04:39:02;;;;;;;25.30;10.77;;;13.80;99.90;;;;;;5078819;28;20081;-70
2022/10/28 04:41:28;;;;;;;21.80;10.80;;;13.80;99.90;;;;;;5077099;28;20044;-71
2022/10/28 04:43:55;;;;;;;24.88;10.57;;;13.90;99.90;;;;;;5077188;28;20410;-70
2022/10/28 04:46:21;;;;;;;23.10;10.18;;;13.80;99.90;;;;;;5074226;28;20059;-71
2022/10/28 04:48:47;;;;;;;24.03;11.07;;;13.80;99.90;;;;;;5075010;28;20132;-72
2022/10/28 04:51:13;;;;;;;23.77;10.63;;;13.80;99.90;;;;;;5057306;28;20376;-71
2022/10/28 04:53:39;;;;;;;31.33;11.13;;;13.80;99.90;;;;;;5074740;28;20457;-71
2022/10/28 04:56:05;;;;;;;23.88;11.18;;;13.80;99.90;;;;;;5073816;28;20197;-70
2022/10/28 04:58:31;;;;;;;26.67;10.10;;;13.80;99.90;;;;;;5073690;28;20059;-70
2022/10/28 05:00:56;;;;;;;24.55;10.75;;;13.80;99.90;;;;;;5074575;28;20131;-71
2022/10/28 05:03:22;;;;;;;28.25;10.52;;;13.80;99.90;;;;;;5078444;28;20044;-70
2022/10/28 05:05:48;;;;;;;24.85;10.90;;;13.90;99.90;;;;;;5073803;28;20044;-70
2022/10/28 05:08:13;;;;;;;27.63;10.50;;;13.90;99.90;;;;;;5056993;28;20048;-70
2022/10/28 05:10:39;;;;;;;31.60;10.63;;;13.90;99.90;;;;;;5056848;28;20044;-70
2022/10/28 05:13:05;;;;;;;25.38;10.32;;;13.90;99.90;;;;;;5074900;28;20048;-70
2022/10/28 05:15:31;;;;;;;28.77;10.70;;;13.80;99.90;;;;;;5074321;28;20055;-70
2022/10/28 05:17:56;;;;;;;26.65;10.45;;;13.80;99.90;;;;;;5057279;28;20154;-70
2022/10/28 05:20:22;;;;;;;25.52;11.52;;;13.80;99.90;;;;;;5073449;28;20044;-71
2022/10/28 05:22:52;;;;;;;25.23;10.73;;;13.80;99.90;;;;;;5076670;28;20079;-71
2022/10/28 05:25:18;;;;;;;24.17;10.38;;;13.80;99.90;;;;;;5076558;28;20201;-69
2022/10/28 05:27:44;;;;;;;22.10;10.55;;;13.90;99.90;;;;;;5075326;28;20108;-71
2022/10/28 05:30:11;;;;;;;26.40;9.95;;;13.90;99.90;;;;;;5076076;28;20119;-71
2022/10/28 05:32:37;;;;;;;23.17;9.80;;;13.90;99.90;;;;;;5059261;28;20059;-70
2022/10/28 05:35:03;;;;;;;25.23;10.27;;;13.80;99.90;;;;;;5075606;28;20056;-71
2022/10/28 05:37:29;;;;;;;25.65;10.50;;;13.80;99.90;;;;;;5073543;28;20131;-71
2022/10/28 05:39:55;;;;;;;22.23;10.13;;;13.80;99.90;;;;;;5057884;28;20111;-71
2022/10/28 05:42:21;;;;;;;22.92;9.90;;;13.80;99.90;;;;;;5074023;28;20049;-73
2022/10/28 05:44:47;;;;;;;20.95;9.55;;;13.70;99.90;;;;;;5074805;28;20040;-71
2022/10/28 05:47:12;;;;;;;27.20;9.85;;;13.70;99.90;;;;;;5039680;28;20464;-72
2022/10/28 05:49:38;;;;;;;24.38;8.88;;;13.70;99.90;;;;;;5072417;28;20052;-72
2022/10/28 05:52:04;;;;;;;25.17;9.50;;;13.60;99.90;;;;;;5055553;28;20048;-71
2022/10/28 05:54:30;;;;;;;21.88;9.88;;;13.70;99.90;;;;;;5072761;28;20358;-71
2022/10/28 05:56:55;;;;;;;24.15;9.57;;;13.70;99.90;;;;;;5073684;28;20045;-72
2022/10/28 05:59:21;;;;;;;20.38;9.05;;;13.60;99.90;;;;;;5056919;28;20049;-74
2022/10/28 06:01:47;;;;;;;23.05;10.40;;;13.60;99.90;;;;;;5072413;28;20049;-72
2022/10/28 06:04:16;;;;;;;20.75;9.23;;;13.50;99.90;;;;;;5072784;28;20541;-73
2022/10/28 06:06:41;;;;;;;22.33;8.82;;;13.50;99.90;;;;;;5073416;28;20047;-70
2022/10/28 06:09:07;;;;;;;23.00;10.02;;;13.50;99.90;;;;;;5072354;28;20045;-71
2022/10/28 06:11:34;;;;;;;21.98;9.25;;;13.50;99.90;;;;;;5073519;28;20045;-70
2022/10/28 06:14:00;;;;;;;27.10;9.23;;;13.50;99.90;;;;;;5073448;28;20098;-71
2022/10/28 06:16:25;;;;;;;22.90;9.23;;;13.50;99.90;;;;;;5072422;28;20414;-74
2022/10/28 06:18:51;;;;;;;21.83;9.02;;;13.50;99.90;;;;;;5056005;28;20036;-71
2022/10/28 06:21:18;;;;;;;23.40;8.98;;;13.40;99.90;;;;;;5055462;28;20051;-71
2022/10/28 06:23:45;;;;;;;25.58;9.00;;;13.40;99.90;;;;;;5073231;28;20052;-70
2022/10/28 06:26:11;;;;;;;;;;;13.40;99.90;;;;;;5073286;28;20052;-71
2022/10/28 06:28:37;;;;;;;23.67;9.63;;;13.40;99.90;;;;;;5071864;28;20085;-70
2022/10/28 06:31:04;;;;;;;22.38;9.35;;;13.40;99.90;;;;;;5072798;28;20049;-71
2022/10/28 06:33:31;;;;;;;21.45;9.57;;;13.40;99.90;;;;;;5073304;28;20045;-70
2022/10/28 06:35:58;;;;;;;20.50;10.00;;;13.40;99.90;;;;;;5071847;28;20122;-70
2022/10/28 06:38:24;;;;;;;24.10;9.67;;;13.40;99.90;;;;;;5073230;28;20056;-70
2022/10/28 06:40:50;;;;;;;25.90;9.43;;;13.40;99.90;;;;;;5054961;28;20523;-71
2022/10/28 06:43:16;;;;;;;20.55;9.10;;;13.40;99.90;;;;;;5072320;28;20513;-69
2022/10/28 06:45:42;;;;;;;18.92;9.45;;;13.40;99.90;;;;;;5054895;28;20079;-73
2022/10/28 06:48:09;;;;;;;20.33;9.05;;;13.40;99.90;;;;;;5071630;28;20087;-71
2022/10/28 06:50:35;;;;;;;;;;;13.40;99.90;;;;;;5073597;28;20048;-71
2022/10/28 06:53:01;;;;;;;22.33;9.32;;;13.40;99.90;;;;;;5071896;28;20011;-71
2022/10/28 06:55:28;;;;;;;20.52;9.15;;;13.40;99.90;;;;;;5055636;28;20048;-71
2022/10/28 06:58:04;;;;;;;;;;;13.50;99.90;;;;;;5038907;28;20132;-70
2022/10/28 07:00:32;;;;;;;18.63;8.50;;;13.50;99.90;;;;;;5055794;28;19924;-73
2022/10/28 07:02:59;;;;;;;20.95;8.10;;;13.50;99.90;;;;;;5073441;28;20283;-71
2022/10/28 07:05:26;;;;;;;24.67;8.70;;;13.60;99.90;;;;;;5038555;28;20078;-70
2022/10/28 07:07:52;;;;;;;;;;;13.60;99.90;;;;;;5073103;28;20045;-69
2022/10/28 07:10:18;;;;;;;17.30;8.60;;;13.70;99.90;;;;;;5071569;28;19945;-71
2022/10/28 07:12:44;;;;;;;28.00;8.68;;;13.70;99.90;;;;;;5071300;28;20055;-71
2022/10/28 07:15:10;;;;;;;18.42;8.25;;;13.80;99.90;;;;;;5071370;28;20040;-72
2022/10/28 07:17:36;;;;;;;19.83;8.27;;;13.80;99.90;;;;;;5072539;28;20045;-70
2022/10/28 07:20:01;;;;;;;27.42;8.23;;;13.90;99.90;;;;;;5071366;28;20397;-70
2022/10/28 07:22:27;;;;;;;19.92;7.70;;;13.90;99.90;;;;;;5054909;28;20422;-71
2022/10/28 07:24:53;;;;;;;19.92;8.07;;;14.00;99.90;;;;;;5055028;28;20052;-71
2022/10/28 07:27:18;;;;;;;20.38;7.88;;;14.10;99.90;;;;;;5055446;28;20044;-70
2022/10/28 07:29:44;;;;;;;20.90;7.75;;;14.10;99.90;;;;;;5056032;28;20403;-69
2022/10/28 07:32:10;;;;;;;24.90;8.85;;;14.10;99.90;;;;;;5071743;28;20411;-70
2022/10/28 07:34:36;;;;;;;28.33;7.78;;;14.20;99.90;;;;;;5055809;28;20054;-71
2022/10/28 07:37:03;;;;;;;18.27;7.35;;;14.20;99.90;;;;;;5073666;28;20060;-71
2022/10/28 07:39:29;;;;;;;16.25;6.95;;;14.30;99.90;;;;;;5055810;28;20433;-71
2022/10/28 07:41:54;;;;;;;20.40;7.22;;;14.40;99.90;;;;;;5057524;28;20044;-72
2022/10/28 07:44:20;;;;;;;20.83;7.53;;;14.50;99.90;;;;;;5071828;28;20036;-71
2022/10/28 07:46:46;;;;;;;21.05;7.47;;;14.50;99.90;;;;;;5071630;28;20113;-71
2022/10/28 07:49:11;;;;;;;21.85;6.85;;;14.70;99.90;;;;;;5073995;28;20055;-71
2022/10/28 07:51:37;;;;;;;18.60;6.75;;;14.70;99.90;;;;;;5044398;28;20060;-72
2022/10/28 07:54:04;;;;;;;17.05;6.75;;;14.80;99.90;;;;;;5058600;28;20320;-71
2022/10/28 07:56:29;;;;;;;17.08;5.78;;;14.90;99.90;;;;;;5075169;28;20110;-71
2022/10/28 07:58:55;;;;;;;20.35;6.65;;;14.90;99.90;;;;;;5059102;28;20036;-70
2022/10/28 08:01:21;;;;;;;21.15;6.88;;;15.00;99.90;;;;;;5058086;28;20058;-71
2022/10/28 08:03:47;;;;;;;22.70;7.05;;;15.10;99.90;;;;;;5059823;28;20049;-70
2022/10/28 08:06:19;;;;;;;15.68;6.40;;;15.10;99.90;;;;;;5077992;28;20048;-72
2022/10/28 08:08:47;;;;;;;21.55;7.22;;;15.20;99.90;;;;;;5059485;28;20041;-71
2022/10/28 08:11:17;;;;;;;22.90;6.70;;;15.20;99.90;;;;;;5076437;28;20056;-70
2022/10/28 08:13:44;;;;;;;15.32;5.97;;;15.30;99.90;;;;;;5058989;28;20045;-72
2022/10/28 08:16:10;;;;;;;20.00;6.40;;;15.30;99.90;;;;;;5059357;28;20048;-73
2022/10/28 08:18:37;;;;;;;15.55;6.53;;;15.40;99.90;;;;;;5058832;28;20110;-70
2022/10/28 08:21:04;;;;;;;;;;;15.40;99.90;;;;;;5081851;28;20046;-72
2022/10/28 08:23:30;;;;;;;39.17;6.88;;;15.50;99.90;;;;;;5066055;28;19920;-72
2022/10/28 08:25:56;;;;;;;20.50;6.75;;;15.60;99.90;;;;;;5081910;28;20063;-73
2022/10/28 08:28:23;;;;;;;19.38;6.55;;;15.70;99.90;;;;;;5084171;28;20100;-74
2022/10/28 08:30:49;;;;;;;;;;;15.70;99.90;;;;;;5065846;28;20403;-70
2022/10/28 08:33:17;;;;;;;17.50;6.47;;;15.90;99.90;;;;;;5082902;28;19931;-70
2022/10/28 08:35:48;;;;;;;14.75;6.13;;;15.90;99.90;;;;;;5084156;28;20102;-73
2022/10/28 08:38:14;;;;;;;24.15;8.10;;;16.00;99.90;;;;;;5067123;28;20094;-71
2022/10/28 08:41:03;;;;;;;19.50;6.93;;;16.10;99.90;;;;;;5065511;28;20086;-72
2022/10/28 08:43:43;;;;;;;18.50;5.75;;;16.20;99.90;;;;;;5064902;28;20120;-73
2022/10/28 08:46:57;;;;;;;21.23;5.78;;;16.40;99.90;;;;;;5085717;28;20044;-72
2022/10/28 08:49:32;;;;;;;20.50;6.25;;;16.60;99.90;;;;;;5078028;28;20404;-73
2022/10/28 08:52:18;;;;;;;15.48;5.25;;;16.70;99.90;;;;;;5080935;28;20123;-73
2022/10/28 08:54:50;;;;;;;12.98;5.25;;;16.90;99.90;;;;;;5077468;28;20044;-75
2022/10/28 08:57:20;;;;;;;18.65;5.35;;;17.10;99.90;;;;;;5075999;28;20134;-72
2022/10/28 08:59:52;;;;;;;16.48;5.80;;;17.20;99.90;;;;;;5075839;28;20398;-73
2022/10/28 09:02:25;;;;;;;20.77;6.10;;;17.60;99.90;;;;;;5076467;28;20445;-73
2022/10/28 09:05:01;;;;;;;23.65;5.53;;;17.50;99.90;;;;;;5074442;28;20044;-72
2022/10/28 09:07:27;;;;;;;14.27;5.47;;;17.60;99.90;;;;;;5073692;28;20095;-71
2022/10/28 09:09:53;;;;;;;14.67;5.40;;;17.60;99.90;;;;;;5074472;28;20053;-72
2022/10/28 09:12:49;;;;;;;15.45;5.72;;;17.70;99.90;;;;;;5077161;28;20048;-72
2022/10/28 09:15:59;;;;;;;20.15;5.43;;;17.70;99.90;;;;;;5078407;28;20080;-72
2022/10/28 09:18:45;;;;;;;19.98;5.55;;;17.80;99.90;;;;;;5060072;28;20056;-72
2022/10/28 09:21:30;;;;;;;19.98;4.95;;;17.80;99.90;;;;;;5078554;28;20059;-72
2022/10/28 09:23:58;;;;;;;19.65;5.53;;;17.80;99.90;;;;;;5081062;28;20105;-71
2022/10/28 09:27:03;;;;;;;17.92;5.93;;;17.90;99.90;;;;;;5061121;28;20101;-73
2022/10/28 09:29:35;;;;;;;18.75;5.70;;;17.90;99.90;;;;;;5062456;28;20090;-73
2022/10/28 09:32:27;;;;;;;15.73;4.80;;;18.00;99.90;;;;;;5080274;28;20216;-72
2022/10/28 09:35:07;;;;;;;13.88;4.93;;;18.00;99.90;;;;;;5066004;28;20417;-73
2022/10/28 09:37:38;;;;;;;22.38;4.60;;;18.10;99.90;;;;;;5084561;28;20045;-71
2022/10/28 09:40:12;;;;;;;17.23;5.32;;;18.10;99.90;;;;;;5063598;28;20399;-72
2022/10/28 09:42:45;;;;;;;18.50;5.15;;;18.20;99.90;;;;;;5089249;28;20078;-71
2022/10/28 09:45:16;;;;;;;15.60;4.40;;;18.20;99.90;;;;;;5087202;28;20086;-72
2022/10/28 09:47:52;;;;;;;18.15;4.90;;;18.30;99.90;;;;;;5049495;28;20048;-72
2022/10/28 09:50:22;;;;;;;17.45;5.18;;;18.30;99.90;;;;;;5081358;28;20044;-72
2022/10/28 09:53:09;;;;;;;18.52;5.30;;;18.40;99.90;;;;;;5079363;28;20080;-73
2022/10/28 09:55:35;;;;;;;17.27;5.05;;;18.40;99.90;;;;;;5077453;28;20109;-73
2022/10/28 09:58:04;;;;;;;15.87;4.97;;;18.40;99.90;;;;;;5077136;28;20393;-72
2022/10/28 10:00:30;;;;;;;23.10;5.65;;;18.70;99.90;;;;;;5077680;28;20071;-74
2022/10/28 10:02:57;;;;;;;18.20;5.67;;;18.40;99.90;;;;;;5076578;28;20048;-76
2022/10/28 10:05:24;;;;;;;20.65;5.10;;;18.50;99.90;;;;;;5075781;28;20123;-73
2022/10/28 10:07:55;;;;;;;22.27;5.00;;;18.50;99.90;;;;;;5040942;28;20045;-73
2022/10/28 10:10:27;;;;;;;17.40;5.25;;;18.60;99.90;;;;;;5074847;28;20044;-72
2022/10/28 10:12:58;;;;;;;15.43;4.68;;;18.60;99.90;;;;;;5073206;28;20047;-72
2022/10/28 10:15:37;;;;;;;15.63;4.53;;;18.70;99.90;;;;;;5073348;28;20511;-72
2022/10/28 10:18:05;;;;;;;15.13;4.63;;;18.70;99.90;;;;;;5072896;28;20044;-72
2022/10/28 10:20:52;;;;;;;15.27;4.65;;;18.90;99.90;;;;;;5057062;28;20055;-72
2022/10/28 10:23:34;;;;;;;16.20;4.30;;;19.00;99.90;;;;;;5039300;28;20121;-73
2022/10/28 10:26:04;;;;;;;20.30;4.72;;;19.00;99.90;;;;;;5058821;28;20049;-74
2022/10/28 10:28:34;;;;;;;17.77;4.80;;;19.10;99.90;;;;;;5056343;28;20072;-74
2022/10/28 10:31:04;;;;;;;12.32;4.32;;;19.10;99.90;;;;;;5073112;28;20067;-74
2022/10/28 10:33:39;;;;;;;16.10;4.30;;;19.10;99.90;;;;;;5074931;28;20048;-73
2022/10/28 10:36:14;;;;;;;19.65;4.95;;;19.20;99.90;;;;;;5078738;28;20055;-73
2022/10/28 10:38:54;;;;;;;15.30;4.13;;;19.20;99.90;;;;;;5075954;28;20095;-72
2022/10/28 10:41:43;;;;;;;19.63;4.75;;;19.20;99.90;;;;;;5077343;28;20054;-72
2022/10/28 10:44:21;;;;;;;14.40;4.28;;;19.20;99.90;;;;;;5072666;28;20051;-73
2022/10/28 10:47:03;;;;;;;18.58;4.32;;;19.20;99.90;;;;;;5073470;28;20177;-72
2022/10/28 10:49:29;;;;;;;14.90;4.22;;;19.20;99.90;;;;;;5073777;28;20088;-74
2022/10/28 10:52:14;;;;;;;20.23;4.00;;;19.20;99.90;;;;;;5077225;28;20533;-76
2022/10/28 10:54:57;;;;;;;17.88;4.47;;;19.20;99.90;;;;;;5073686;28;20495;-73
2022/10/28 10:57:24;;;;;;;24.63;4.53;;;19.30;99.90;;;;;;5073619;28;20198;-73
2022/10/28 10:59:53;;;;;;;16.40;4.40;;;19.30;99.90;;;;;;5073819;28;20048;-78
2022/10/28 11:02:31;;;;;;;15.10;4.18;;;19.20;99.90;;;;;;5074007;28;20052;-73
2022/10/28 11:05:03;;;;;;;16.75;4.72;;;19.30;99.90;;;;;;5072663;28;20048;-73
2022/10/28 11:07:30;;;;;;;17.65;4.35;;;19.40;99.90;;;;;;5072266;28;20613;-73
2022/10/28 11:09:56;;;;;;;17.17;4.07;;;19.50;99.90;;;;;;5071557;28;20504;-74
2022/10/28 11:12:29;;;;;;;17.97;4.67;;;19.60;99.90;;;;;;5072561;28;20091;-74
2022/10/28 11:15:18;;;;;;;19.08;4.20;;;19.70;99.90;;;;;;5072583;28;20054;-74
2022/10/28 11:17:59;;;;;;;16.40;4.57;;;19.80;99.90;;;;;;5063226;28;20048;-73
2022/10/28 11:20:42;;;;;;;17.73;4.53;;;19.90;99.90;;;;;;5072745;28;20056;-73
2022/10/28 11:23:37;;;;;;;15.80;3.80;;;19.90;99.90;;;;;;5073575;28;20049;-72
2022/10/28 11:26:08;;;;;;;15.52;4.45;;;20.00;99.90;;;;;;5044058;28;20163;-74
2022/10/28 11:28:48;;;;;;;16.10;3.60;;;20.00;99.90;;;;;;5073344;28;20051;-73
2022/10/28 11:31:38;;;;;;;13.20;4.30;;;20.00;99.90;;;;;;5074760;28;20063;-72
2022/10/28 11:34:43;;;;;;;15.65;3.40;;;20.00;99.90;;;;;;5075700;28;20083;-72
2022/10/28 11:37:46;;;;;;;18.02;4.13;;;20.00;99.90;;;;;;5073411;28;20059;-75
2022/10/28 11:40:18;;;;;;;14.40;4.15;;;20.10;99.90;;;;;;5073325;28;20060;-74
2022/10/28 11:42:55;;;;;;;16.90;3.95;;;20.20;99.90;;;;;;5073697;28;20068;-72
2022/10/28 11:45:59;;;;;;;16.10;4.30;;;20.30;99.90;;;;;;5074613;28;20045;-74
2022/10/28 11:48:38;;;;;;;15.60;4.10;;;20.40;99.90;;;;;;5000819;28;20121;-73
2022/10/28 11:51:16;;;;;;;15.32;4.05;;;20.40;99.90;;;;;;5068652;28;20103;-75
2022/10/28 11:54:04;;;;;;;19.45;4.20;;;20.50;99.90;;;;;;5076676;28;20068;-73
2022/10/28 11:56:42;;;;;;;18.52;4.15;;;20.50;99.90;;;;;;5078672;28;20060;-70
2022/10/28 11:59:17;;;;;;;18.27;3.85;;;20.60;99.90;;;;;;5079649;28;20056;-72
2022/10/28 12:02:08;;;;;;;18.52;3.92;;;20.60;99.90;;;;;;5080521;28;20061;-74
2022/10/28 12:04:43;;;;;;;14.38;4.32;;;20.60;99.90;;;;;;5079912;28;20051;-73
2022/10/28 12:07:33;;;;;;;12.07;3.93;;;20.60;99.90;;;;;;5062041;28;20044;-72
2022/10/28 12:10:16;;;;;;;17.35;4.95;;;20.60;99.90;;;;;;5080472;28;20083;-77
2022/10/28 12:13:06;;;;;;;19.20;4.57;;;20.60;99.90;;;;;;5062089;28;20091;-74
2022/10/28 12:16:28;;;;;;;19.65;4.70;;;20.70;99.90;;;;;;5062597;28;20481;-72
2022/10/28 12:19:17;;;;;;;12.65;4.28;;;20.70;99.90;;;;;;4984525;28;20041;-72
2022/10/28 12:22:18;;;;;;;22.38;4.75;;;20.80;99.90;;;;;;4979093;28;20073;-75
2022/10/28 12:24:45;;;;;;;20.35;4.10;;;20.90;99.90;;;;;;5076154;28;20068;-73
2022/10/28 12:27:20;;;;;;;14.30;4.07;;;20.90;99.90;;;;;;5078534;28;20048;-73
2022/10/28 12:29:50;;;;;;;18.90;4.32;;;20.90;99.90;;;;;;5078574;28;20064;-72
2022/10/28 12:32:29;;;;;;;20.48;4.60;;;21.00;99.90;;;;;;5078806;28;20052;-72
2022/10/28 12:35:05;;;;;;;20.80;4.63;;;21.00;99.90;;;;;;5078033;28;20044;-73
2022/10/28 12:37:38;;;;;;;18.00;4.55;;;21.10;99.90;;;;;;5077809;28;20037;-74
2022/10/28 12:40:34;;;;;;;18.63;4.60;;;21.10;99.90;;;;;;5087733;28;20129;-75
2022/10/28 12:43:11;;;;;;;25.15;4.47;;;21.10;99.90;;;;;;5079611;28;20104;-73
2022/10/28 12:45:41;;;;;;;19.10;4.40;;;21.00;99.90;;;;;;5063267;28;20056;-74
2022/10/28 12:48:34;;;;;;;13.77;4.47;;;21.00;99.90;;;;;;5080103;28;20079;-72
2022/10/28 12:50:59;;;;;;;22.02;4.38;;;21.00;99.90;;;;;;5080553;28;20384;-72
2022/10/28 12:53:34;;;;;;;17.80;4.40;;;20.90;99.90;;;;;;5062063;28;20139;-73
2022/10/28 12:56:02;;;;;;;19.75;4.13;;;21.00;99.90;;;;;;5078119;28;20048;-74
2022/10/28 12:58:49;;;;;;;16.17;4.63;;;20.90;99.90;;;;;;5079154;28;20053;-73
2022/10/28 13:01:18;;;;;;;19.17;5.00;;;20.90;99.90;;;;;;5079477;28;20060;-72